createdAt,value
2022-08-10T00:01:09.041Z,2.78
2022-08-10T00:03:36.557Z,3.15
2022-08-10T00:06:03.756Z,2.70
2022-08-10T00:08:30.974Z,2.95
2022-08-10T00:10:58.568Z,2.97
2022-08-10T00:13:26.685Z,2.72
2022-08-10T00:15:55.166Z,3.17
2022-08-10T00:18:35.353Z,2.83
2022-08-10T00:21:07.589Z,3.10
2022-08-10T00:23:35.030Z,3.20
2022-08-10T00:26:02.608Z,2.92
2022-08-10T00:28:30.051Z,3.30
2022-08-10T00:30:57.236Z,3.80
2022-08-10T00:33:24.692Z,3.35
2022-08-10T00:35:52.138Z,3.33
2022-08-10T00:38:19.319Z,3.30
2022-08-10T00:40:46.618Z,3.45
2022-08-10T00:43:13.815Z,3.15
2022-08-10T00:45:40.978Z,3.70
2022-08-10T00:48:08.250Z,3.45
2022-08-10T00:50:35.392Z,3.50
2022-08-10T00:53:02.648Z,3.78
2022-08-10T00:55:29.843Z,2.60
2022-08-10T00:57:57.409Z,3.70
2022-08-10T01:00:24.975Z,4.10
2022-08-10T01:02:52.394Z,3.60
2022-08-10T01:05:20.507Z,3.90
2022-08-10T01:08:04.019Z,3.70
2022-08-10T01:10:37.027Z,3.45
2022-08-10T01:13:16.352Z,3.72
2022-08-10T01:15:49.644Z,3.30
2022-08-10T01:18:28.954Z,3.60
2022-08-10T01:20:59.087Z,3.67
2022-08-10T01:23:26.203Z,3.78
2022-08-10T01:26:12.372Z,3.28
2022-08-10T01:28:55.844Z,3.60
2022-08-10T01:31:27.100Z,3.60
2022-08-10T01:34:04.656Z,3.20
2022-08-10T01:36:34.865Z,4.18
2022-08-10T01:39:03.680Z,3.53
2022-08-10T01:41:46.389Z,3.75
2022-08-10T01:44:19.877Z,3.95
2022-08-10T01:46:49.330Z,4.10
2022-08-10T01:49:21.632Z,3.45
2022-08-10T01:51:53.249Z,3.83
2022-08-10T01:54:22.250Z,3.88
2022-08-10T01:56:51.820Z,3.45
2022-08-10T01:59:33.682Z,4.00
2022-08-10T02:02:02.922Z,3.53
2022-08-10T02:04:30.589Z,3.75
2022-08-10T02:06:58.586Z,3.60
2022-08-10T02:09:31.071Z,3.90
2022-08-10T02:12:07.350Z,3.83
2022-08-10T02:14:39.707Z,3.47
2022-08-10T02:17:57.585Z,4.03
2022-08-10T02:20:13.284Z,3.70
2022-08-10T02:22:41.175Z,3.92
2022-08-10T02:25:09.729Z,3.80
2022-08-10T02:27:58.029Z,3.78
2022-08-10T02:30:25.583Z,4.18
2022-08-10T02:32:53.108Z,3.88
2022-08-10T02:35:22.333Z,3.78
2022-08-10T02:37:50.500Z,3.70
2022-08-10T02:45:13.343Z,3.45
2022-08-10T02:45:19.996Z,3.50
2022-08-10T02:46:06.280Z,4.05
2022-08-10T02:48:44.228Z,3.70
2022-08-10T02:51:16.666Z,4.13
2022-08-10T02:53:57.100Z,3.85
2022-08-10T02:56:32.914Z,3.70
2022-08-10T02:59:04.346Z,4.45
2022-08-10T03:01:34.657Z,4.30
2022-08-10T03:04:04.967Z,4.15
2022-08-10T03:06:35.809Z,3.97
2022-08-10T03:09:03.563Z,3.50
2022-08-10T03:12:37.651Z,4.32
2022-08-10T03:14:19.692Z,4.65
2022-08-10T03:16:47.265Z,3.97
2022-08-10T03:20:35.902Z,4.05
2022-08-10T03:22:03.742Z,4.03
2022-08-10T03:24:33.391Z,4.47
2022-08-10T03:27:01.388Z,4.00
2022-08-10T03:29:29.023Z,3.65
2022-08-10T03:31:56.545Z,3.75
2022-08-10T03:34:33.445Z,4.03
2022-08-10T03:37:01.121Z,4.15
2022-08-10T03:39:28.675Z,3.88
2022-08-10T03:41:58.842Z,3.70
2022-08-10T03:44:26.693Z,3.90
2022-08-10T03:46:54.114Z,4.00
2022-08-10T03:49:22.318Z,4.35
2022-08-10T03:51:51.431Z,4.40
2022-08-10T03:54:19.478Z,3.60
2022-08-10T03:56:46.885Z,4.28
2022-08-10T03:59:15.760Z,4.60
2022-08-10T04:02:47.062Z,4.05
2022-08-10T04:04:30.766Z,4.50
2022-08-10T04:06:59.032Z,4.28
2022-08-10T04:09:54.142Z,4.13
2022-08-10T04:12:18.538Z,4.38
2022-08-10T04:14:50.030Z,4.00
2022-08-10T04:18:00.162Z,4.18
2022-08-10T04:20:08.652Z,4.10
2022-08-10T04:22:37.088Z,3.90
2022-08-10T04:25:05.732Z,4.00
2022-08-10T04:27:33.149Z,4.68
2022-08-10T04:30:00.510Z,4.07
2022-08-10T04:32:31.461Z,4.10
2022-08-10T04:34:59.096Z,4.03
2022-08-10T04:37:26.493Z,4.30
2022-08-10T04:39:53.716Z,4.38
2022-08-10T04:42:20.858Z,4.75
2022-08-10T04:44:48.079Z,4.38
2022-08-10T04:47:16.765Z,4.57
2022-08-10T04:50:02.550Z,4.80
2022-08-10T04:52:29.712Z,4.00
2022-08-10T04:54:56.947Z,4.65
2022-08-10T04:57:24.357Z,4.35
2022-08-10T04:59:51.500Z,4.45
2022-08-10T05:02:31.667Z,4.57
2022-08-10T05:04:59.640Z,4.60
2022-08-10T05:07:26.933Z,3.97
2022-08-10T05:10:02.555Z,4.55
2022-08-10T05:12:35.791Z,4.43
2022-08-10T05:15:14.843Z,4.33
2022-08-10T05:18:08.636Z,4.95
2022-08-10T05:20:30.028Z,4.20
2022-08-10T05:22:57.288Z,4.65
2022-08-10T05:25:24.463Z,4.28
2022-08-10T05:27:52.478Z,4.35
2022-08-10T05:30:21.030Z,4.75
2022-08-10T05:32:56.484Z,4.32
2022-08-10T05:35:28.237Z,4.32
2022-08-10T05:38:10.561Z,4.07
2022-08-10T05:40:42.675Z,4.32
2022-08-10T05:43:14.699Z,4.93
2022-08-10T05:46:19.013Z,4.63
2022-08-10T05:48:54.509Z,4.80
2022-08-10T05:51:20.470Z,4.80
2022-08-10T05:54:03.614Z,3.83
2022-08-10T05:56:53.703Z,4.47
2022-08-10T06:00:11.326Z,4.68
2022-08-10T06:02:31.648Z,4.25
2022-08-10T06:04:58.005Z,4.15
2022-08-10T06:07:27.387Z,3.70
2022-08-10T06:09:59.125Z,3.78
2022-08-10T06:12:36.400Z,4.07
2022-08-10T06:15:21.985Z,3.75
2022-08-10T06:18:05.872Z,3.95
2022-08-10T06:20:36.132Z,4.05
2022-08-10T06:23:04.396Z,3.40
2022-08-10T06:26:10.020Z,3.63
2022-08-10T06:28:20.444Z,3.67
2022-08-10T06:30:48.208Z,3.92
2022-08-10T06:33:15.466Z,3.20
2022-08-10T06:35:42.732Z,3.78
2022-08-10T06:38:10.969Z,3.80
2022-08-10T06:40:41.110Z,3.20
2022-08-10T06:43:10.281Z,3.35
2022-08-10T06:45:46.637Z,3.63
2022-08-10T06:48:36.258Z,3.60
2022-08-10T06:51:07.699Z,3.88
2022-08-10T06:53:53.626Z,3.40
2022-08-10T06:56:36.788Z,3.70
2022-08-10T06:59:14.552Z,3.30
2022-08-10T07:01:51.702Z,2.95
2022-08-10T07:04:31.990Z,3.47
2022-08-10T07:07:01.562Z,3.17
2022-08-10T07:09:29.601Z,3.08
2022-08-10T07:11:58.121Z,2.97
2022-08-10T07:14:38.117Z,3.13
2022-08-10T07:17:05.859Z,3.03
2022-08-10T07:19:33.834Z,3.08
2022-08-10T07:23:01.677Z,2.60
2022-08-10T07:25:07.149Z,3.03
2022-08-10T07:27:39.213Z,3.00
2022-08-10T07:30:22.244Z,2.88
2022-08-10T07:32:50.897Z,3.08
2022-08-10T07:35:19.466Z,3.00
2022-08-10T07:37:49.261Z,3.50
2022-08-10T07:40:18.529Z,2.97
2022-08-10T07:42:47.917Z,2.65
2022-08-10T07:45:15.426Z,2.67
2022-08-10T07:47:46.134Z,2.90
2022-08-10T07:50:21.581Z,2.97
2022-08-10T07:52:50.048Z,2.83
2022-08-10T07:55:18.185Z,2.92
2022-08-10T07:57:47.341Z,2.85
2022-08-10T08:00:14.953Z,2.50
2022-08-10T08:02:58.666Z,2.85
2022-08-10T08:05:38.559Z,2.60
2022-08-10T08:08:16.002Z,2.65
2022-08-10T08:10:43.562Z,2.30
2022-08-10T08:13:11.072Z,3.30
2022-08-10T08:16:20.732Z,2.65
2022-08-10T08:18:27.200Z,2.22
2022-08-10T08:20:55.221Z,2.60
2022-08-10T08:24:06.200Z,2.50
2022-08-10T08:26:11.277Z,2.67
2022-08-10T08:28:39.022Z,2.65
2022-08-10T08:31:06.504Z,2.67
2022-08-10T08:33:41.526Z,1.83
2022-08-10T08:36:10.599Z,1.83
2022-08-10T08:38:38.603Z,2.33
2022-08-10T08:41:21.143Z,1.73
2022-08-10T08:44:08.543Z,1.88
2022-08-10T08:46:59.304Z,1.52
2022-08-10T08:50:08.780Z,1.85
2022-08-10T08:52:51.264Z,1.67
2022-08-10T08:56:03.031Z,1.70
2022-08-10T08:58:24.447Z,2.05
2022-08-10T09:01:10.278Z,1.73
2022-08-10T09:03:58.033Z,1.73
2022-08-10T09:06:45.436Z,1.80
2022-08-10T09:09:21.487Z,1.83
2022-08-10T09:12:01.909Z,1.83
2022-08-10T09:14:31.927Z,2.50
2022-08-10T09:17:06.544Z,3.13
2022-08-10T09:19:55.834Z,2.05
2022-08-10T09:22:35.142Z,2.35
2022-08-10T09:25:18.999Z,2.70
2022-08-10T09:27:49.402Z,2.13
2022-08-10T09:30:19.702Z,1.88
2022-08-10T09:36:14.940Z,2.03
2022-08-10T09:36:20.170Z,1.70
2022-08-10T09:39:00.131Z,1.75
2022-08-10T09:41:46.841Z,1.83
2022-08-10T09:44:32.634Z,2.03
2022-08-10T09:47:18.258Z,1.67
2022-08-10T09:50:14.814Z,2.13
2022-08-10T09:52:58.945Z,2.10
2022-08-10T09:56:18.078Z,1.98
2022-08-10T09:58:26.914Z,1.65
2022-08-10T10:01:06.339Z,2.20
2022-08-10T10:03:55.303Z,1.70
2022-08-10T10:06:22.468Z,2.08
2022-08-10T10:09:10.635Z,2.85
2022-08-10T10:11:37.996Z,1.88
2022-08-10T10:14:12.195Z,2.30
2022-08-10T10:16:46.966Z,2.10
2022-08-10T10:19:34.342Z,2.00
2022-08-10T10:22:03.491Z,1.88
2022-08-10T10:24:35.028Z,1.90
2022-08-10T10:27:16.572Z,1.92
2022-08-10T10:29:56.871Z,2.47
2022-08-10T10:32:26.009Z,2.08
2022-08-10T10:35:17.502Z,1.95
2022-08-10T10:38:10.207Z,2.22
2022-08-10T10:40:46.342Z,1.95
2022-08-10T10:43:30.452Z,2.13
2022-08-10T10:46:07.002Z,2.30
2022-08-10T10:48:41.535Z,2.00
2022-08-10T10:51:13.218Z,1.92
2022-08-10T10:53:48.759Z,2.03
2022-08-10T10:56:24.533Z,2.10
2022-08-10T10:59:33.481Z,2.30
2022-08-10T11:01:59.807Z,1.83
2022-08-10T11:04:42.067Z,2.05
2022-08-10T11:07:31.937Z,2.50
2022-08-10T11:10:31.667Z,2.00
2022-08-10T11:12:53.602Z,2.03
2022-08-10T11:15:48.243Z,2.05
2022-08-10T11:18:43.904Z,2.45
2022-08-10T11:21:25.171Z,2.25
2022-08-10T11:24:48.051Z,2.20
2022-08-10T11:26:50.244Z,2.40
2022-08-10T11:29:21.835Z,1.85
2022-08-10T11:31:58.665Z,1.98
2022-08-10T11:34:48.767Z,2.00
2022-08-10T11:37:15.890Z,2.28
2022-08-10T11:39:48.901Z,2.05
2022-08-10T11:42:31.569Z,1.80
2022-08-10T11:45:03.828Z,2.00
2022-08-10T11:47:44.658Z,2.10
2022-08-10T11:50:32.048Z,1.80
2022-08-10T11:53:10.189Z,2.13
2022-08-10T11:55:37.408Z,2.42
2022-08-10T11:58:31.392Z,1.90
2022-08-10T12:01:02.184Z,2.10
2022-08-10T12:03:34.835Z,2.30
2022-08-10T12:06:03.022Z,1.92
2022-08-10T12:10:06.365Z,2.08
2022-08-10T12:11:25.810Z,1.85
2022-08-10T12:14:19.619Z,2.22
2022-08-10T12:16:46.017Z,1.98
2022-08-10T12:19:28.916Z,2.00
2022-08-10T12:22:11.340Z,1.48
2022-08-10T12:24:40.925Z,1.83
2022-08-10T12:27:21.055Z,1.83
2022-08-10T12:29:54.794Z,2.00
2022-08-10T12:32:25.706Z,1.95
2022-08-10T12:35:07.529Z,1.98
2022-08-10T12:37:44.012Z,1.90
2022-08-10T12:40:42.022Z,1.88
2022-08-10T12:44:03.933Z,2.17
2022-08-10T12:46:04.356Z,1.50
2022-08-10T12:48:37.129Z,1.90
2022-08-10T12:51:06.264Z,1.60
2022-08-10T12:53:56.746Z,1.70
2022-08-10T12:56:27.851Z,1.80
2022-08-10T12:58:58.169Z,1.70
2022-08-10T13:02:10.386Z,1.90
2022-08-10T13:04:23.046Z,1.90
2022-08-10T13:06:52.080Z,2.38
2022-08-10T13:09:29.015Z,2.08
2022-08-10T13:12:37.150Z,1.80
2022-08-10T13:14:46.845Z,1.70
2022-08-10T13:17:21.266Z,2.00
2022-08-10T13:19:56.311Z,2.17
2022-08-10T13:22:28.160Z,1.95
2022-08-10T13:24:59.682Z,1.92
2022-08-10T13:28:01.190Z,2.05
2022-08-10T13:30:19.584Z,2.10
2022-08-10T13:33:05.049Z,1.92
2022-08-10T13:35:33.118Z,2.05
2022-08-10T13:38:02.577Z,2.05
2022-08-10T13:40:30.251Z,1.85
2022-08-10T13:42:59.564Z,2.17
2022-08-10T13:45:27.939Z,1.70
2022-08-10T13:47:56.731Z,1.98
2022-08-10T13:50:33.375Z,1.90
2022-08-10T13:53:03.753Z,2.10
2022-08-10T13:55:53.616Z,1.85
2022-08-10T13:58:25.587Z,1.77
2022-08-10T14:00:54.830Z,2.10
2022-08-10T14:03:23.256Z,2.30
2022-08-10T14:05:52.086Z,1.90
2022-08-10T14:08:20.966Z,1.90
2022-08-10T14:11:08.524Z,2.30
2022-08-10T14:13:37.175Z,1.90
2022-08-10T14:16:08.481Z,1.80
2022-08-10T14:18:36.246Z,1.93
2022-08-10T14:21:05.144Z,2.17
2022-08-10T14:23:35.274Z,2.10
2022-08-10T14:26:08.476Z,2.20
2022-08-10T14:28:36.158Z,2.05
2022-08-10T14:31:05.071Z,1.80
2022-08-10T14:33:33.290Z,2.10
2022-08-10T14:36:20.717Z,2.10
2022-08-10T14:38:49.209Z,2.03
2022-08-10T14:44:08.652Z,1.90
2022-08-10T14:46:38.416Z,1.98
2022-08-10T14:49:25.321Z,1.95
2022-08-10T14:51:58.682Z,2.08
2022-08-10T14:54:29.677Z,2.45
2022-08-10T14:56:57.573Z,2.30
2022-08-10T15:00:22.798Z,2.10
2022-08-10T15:02:40.373Z,2.00
2022-08-10T15:05:09.209Z,2.38
2022-08-10T15:07:37.122Z,1.88
2022-08-10T15:10:06.067Z,2.20
2022-08-10T15:12:34.895Z,2.28
2022-08-10T15:15:03.016Z,2.15
2022-08-10T15:17:34.711Z,2.05
2022-08-10T15:20:13.461Z,1.80
2022-08-10T15:22:44.771Z,2.30
2022-08-10T15:25:18.751Z,1.70
2022-08-10T15:27:53.628Z,1.90
2022-08-10T15:30:23.651Z,2.00
2022-08-10T15:33:21.178Z,2.00
2022-08-10T15:36:28.093Z,2.22
2022-08-10T15:39:01.435Z,2.13
2022-08-10T15:41:57.448Z,2.25
2022-08-10T15:44:34.762Z,2.10
2022-08-10T15:47:04.952Z,2.28
2022-08-10T15:49:35.744Z,2.08
2022-08-10T15:52:05.203Z,2.20
2022-08-10T15:54:34.531Z,1.70
2022-08-10T15:57:07.600Z,2.08
2022-08-10T15:59:44.251Z,2.78
2022-08-10T16:02:25.058Z,1.90
2022-08-10T16:04:58.449Z,2.28
2022-08-10T16:07:45.455Z,2.13
2022-08-10T16:10:25.257Z,1.83
2022-08-10T16:12:59.521Z,2.15
2022-08-10T16:15:27.882Z,2.13
2022-08-10T16:18:01.518Z,2.20
2022-08-10T16:20:31.160Z,2.28
2022-08-10T16:23:00.000Z,2.10
2022-08-10T16:25:48.493Z,2.20
2022-08-10T16:28:23.247Z,2.40
2022-08-10T16:30:53.503Z,2.33
2022-08-10T16:33:23.769Z,2.00
2022-08-10T16:35:57.407Z,2.25
2022-08-10T16:38:25.446Z,2.45
2022-08-10T16:40:53.777Z,2.13
2022-08-10T16:43:23.592Z,2.00
2022-08-10T16:45:54.195Z,2.58
2022-08-10T16:48:49.812Z,2.10
2022-08-10T16:51:14.804Z,2.63
2022-08-10T16:53:47.559Z,2.20
2022-08-10T16:56:15.531Z,2.53
2022-08-10T16:58:44.968Z,2.55
2022-08-10T17:01:17.550Z,1.98
2022-08-10T17:04:07.570Z,2.53
2022-08-10T17:06:36.488Z,2.50
2022-08-10T17:09:04.574Z,2.40
2022-08-10T17:11:32.890Z,2.25
2022-08-10T17:14:01.353Z,2.50
2022-08-10T17:16:34.662Z,2.03
2022-08-10T17:19:02.738Z,2.17
2022-08-10T17:21:31.794Z,2.50
2022-08-10T17:24:01.051Z,2.28
2022-08-10T17:26:36.152Z,2.65
2022-08-10T17:29:10.220Z,2.92
2022-08-10T17:31:59.265Z,2.40
2022-08-10T17:34:35.630Z,2.40
2022-08-10T17:37:05.330Z,2.78
2022-08-10T17:39:42.001Z,2.75
2022-08-10T17:42:09.424Z,2.70
2022-08-10T17:44:38.344Z,2.97
2022-08-10T17:47:10.509Z,2.38
2022-08-10T17:49:38.560Z,2.28
2022-08-10T17:52:08.058Z,2.70
2022-08-10T17:54:36.760Z,2.28
2022-08-10T17:57:12.014Z,2.70
2022-08-10T17:59:39.970Z,3.10
2022-08-10T18:02:09.162Z,2.33
2022-08-10T18:04:42.175Z,2.60
2022-08-10T18:07:10.850Z,2.70
2022-08-10T18:09:41.402Z,2.83
2022-08-10T18:12:17.488Z,2.67
2022-08-10T18:14:47.535Z,2.75
2022-08-10T18:17:19.901Z,2.55
2022-08-10T18:19:51.462Z,2.45
2022-08-10T18:22:19.305Z,2.57
2022-08-10T18:24:47.987Z,2.63
2022-08-10T18:27:16.617Z,2.58
2022-08-10T18:29:45.499Z,3.17
2022-08-10T18:32:12.998Z,2.78
2022-08-10T18:34:41.775Z,2.90
2022-08-10T18:37:10.270Z,2.85
2022-08-10T18:39:39.541Z,3.30
2022-08-10T18:42:06.710Z,3.38
2022-08-10T18:44:38.962Z,3.17
2022-08-10T18:47:26.389Z,3.20
2022-08-10T18:50:00.124Z,2.72
2022-08-10T18:52:30.578Z,2.92
2022-08-10T18:55:03.656Z,3.00
2022-08-10T18:57:47.197Z,3.33
2022-08-10T19:00:16.167Z,3.45
2022-08-10T19:03:01.397Z,3.75
2022-08-10T19:05:34.356Z,3.42
2022-08-10T19:08:07.366Z,3.22
2022-08-10T19:10:43.113Z,3.15
2022-08-10T19:13:28.735Z,3.20
2022-08-10T19:16:00.991Z,3.17
2022-08-10T19:21:05.143Z,3.13
2022-08-10T19:23:47.456Z,2.95
2022-08-10T19:26:42.782Z,2.90
2022-08-10T19:30:11.326Z,3.00
2022-08-10T19:32:19.337Z,3.28
2022-08-10T19:35:02.083Z,3.45
2022-08-10T19:40:18.969Z,3.30
2022-08-10T19:43:20.890Z,3.60
2022-08-10T19:46:12.160Z,3.10
2022-08-10T19:48:43.967Z,3.15
2022-08-10T19:51:20.453Z,3.45
2022-08-10T19:53:47.573Z,3.33
2022-08-10T19:56:33.748Z,3.35
2022-08-10T20:00:17.011Z,3.42
2022-08-10T20:02:05.876Z,3.22
2022-08-10T20:04:37.001Z,3.63
2022-08-10T20:07:10.257Z,3.42
2022-08-10T20:09:54.104Z,2.88
2022-08-10T20:12:48.120Z,3.28
2022-08-10T20:15:33.953Z,3.28
2022-08-10T20:18:15.842Z,3.60
2022-08-10T20:20:52.414Z,3.00
2022-08-10T20:23:22.926Z,3.70
2022-08-10T20:25:56.584Z,3.53
2022-08-10T20:28:32.474Z,3.17
2022-08-10T20:31:06.974Z,3.22
2022-08-10T20:33:42.051Z,3.55
2022-08-10T20:36:13.940Z,3.97
2022-08-10T20:38:47.021Z,3.25
2022-08-10T20:41:24.978Z,3.72
2022-08-10T20:44:01.338Z,3.83
2022-08-10T20:46:30.657Z,4.85
2022-08-10T20:49:05.192Z,6.68
2022-08-10T20:51:59.056Z,6.25
2022-08-10T20:54:30.377Z,8.18
2022-08-10T20:57:54.052Z,9.52
2022-08-10T21:00:10.865Z,9.85
2022-08-10T21:02:38.370Z,8.40
2022-08-10T21:05:11.943Z,7.85
2022-08-10T21:08:02.165Z,6.00
2022-08-10T21:10:49.536Z,5.78
2022-08-10T21:13:35.397Z,4.95
2022-08-10T21:16:02.573Z,4.95
2022-08-10T21:18:30.029Z,4.28
2022-08-10T21:24:10.147Z,4.45
2022-08-10T21:25:41.746Z,3.95
2022-08-10T21:26:48.413Z,3.90
2022-08-10T21:29:37.976Z,4.00
2022-08-10T21:32:20.655Z,3.90
2022-08-10T21:34:53.707Z,3.88
2022-08-10T21:37:39.885Z,3.72
2022-08-10T21:40:32.454Z,3.65
2022-08-10T21:43:21.468Z,4.13
2022-08-10T21:46:16.155Z,3.88
2022-08-10T21:49:06.948Z,3.63
2022-08-10T21:52:05.243Z,4.72
2022-08-10T21:55:06.422Z,5.03
2022-08-10T21:58:13.474Z,4.78
2022-08-10T22:01:03.161Z,4.35
2022-08-10T22:03:50.164Z,5.00
2022-08-10T22:06:41.008Z,4.82
2022-08-10T22:09:42.469Z,4.15
2022-08-10T22:16:03.105Z,4.20
2022-08-10T22:18:53.746Z,3.75
2022-08-10T22:21:47.817Z,3.80
2022-08-10T22:24:36.374Z,4.07
2022-08-10T22:27:47.549Z,4.00
2022-08-10T22:30:35.871Z,4.22
2022-08-10T22:31:25.832Z,4.07
2022-08-10T22:33:40.726Z,3.75
2022-08-10T22:36:39.100Z,4.07
2022-08-10T22:40:10.754Z,3.25
2022-08-10T22:42:59.653Z,3.90
2022-08-10T22:45:52.931Z,3.63
2022-08-10T22:48:39.110Z,3.63
2022-08-10T22:51:16.785Z,3.60
2022-08-10T22:54:07.836Z,3.75
2022-08-10T22:56:59.963Z,3.40
2022-08-10T22:59:28.239Z,3.70
2022-08-10T23:02:08.800Z,4.15
2022-08-10T23:04:38.362Z,3.17
2022-08-10T23:07:15.014Z,3.65
2022-08-10T23:09:42.571Z,3.90
2022-08-10T23:12:22.409Z,3.90
2022-08-10T23:15:00.309Z,3.75
2022-08-10T23:18:00.442Z,3.40
2022-08-10T23:20:30.687Z,4.10
2022-08-10T23:23:04.695Z,4.05
2022-08-10T23:25:35.571Z,3.45
2022-08-10T23:28:12.381Z,4.03
2022-08-10T23:30:44.098Z,3.95
2022-08-10T23:33:38.106Z,3.47
2022-08-10T23:36:34.514Z,3.30
2022-08-10T23:39:24.293Z,3.67
2022-08-10T23:41:42.073Z,3.85
2022-08-10T23:44:13.979Z,3.38
2022-08-10T23:46:48.799Z,3.17
2022-08-10T23:49:16.462Z,3.42
2022-08-10T23:51:55.733Z,3.38
2022-08-10T23:54:24.819Z,3.50
2022-08-10T23:56:53.373Z,3.10
2022-08-10T23:59:22.367Z,3.17
